createdAt,value
2022-08-17T00:00:34.221Z,29.15
2022-08-17T00:03:17.994Z,23.83
2022-08-17T00:06:12.090Z,25.67
2022-08-17T00:08:52.377Z,29.45
2022-08-17T00:11:29.001Z,31.23
2022-08-17T00:13:59.757Z,29.55
2022-08-17T00:16:53.423Z,30.20
2022-08-17T00:19:23.300Z,29.90
2022-08-17T00:22:30.809Z,31.63
2022-08-17T00:24:39.395Z,29.35
2022-08-17T00:27:06.283Z,30.65
2022-08-17T00:29:33.180Z,30.23
2022-08-17T00:33:15.478Z,32.75
2022-08-17T00:34:49.127Z,32.92
2022-08-17T00:37:16.239Z,28.85
2022-08-17T00:39:44.303Z,29.27
2022-08-17T00:42:15.717Z,31.48
2022-08-17T00:44:42.710Z,25.15
2022-08-17T00:47:09.658Z,30.30
2022-08-17T00:49:36.641Z,30.38
2022-08-17T00:52:10.833Z,27.83
2022-08-17T00:54:42.228Z,31.35
2022-08-17T00:57:15.020Z,30.73
2022-08-17T00:59:47.214Z,28.75
2022-08-17T01:02:40.454Z,31.42
2022-08-17T01:05:15.337Z,28.00
2022-08-17T01:07:43.445Z,20.52
2022-08-17T01:10:59.967Z,26.58
2022-08-17T01:13:04.601Z,28.25
2022-08-17T01:15:33.501Z,29.08
2022-08-17T01:18:00.754Z,25.10
2022-08-17T01:20:28.018Z,28.25
2022-08-17T01:22:54.997Z,25.70
2022-08-17T01:25:22.641Z,23.33
2022-08-17T01:27:50.092Z,31.60
2022-08-17T01:30:56.923Z,28.20
2022-08-17T01:33:05.872Z,20.58
2022-08-17T01:35:32.662Z,34.42
2022-08-17T01:37:59.647Z,31.30
2022-08-17T01:40:35.888Z,31.17
2022-08-17T01:43:22.886Z,35.30
2022-08-17T01:46:03.002Z,37.67
2022-08-17T01:48:36.522Z,36.08
2022-08-17T01:51:04.068Z,41.10
2022-08-17T01:53:41.024Z,35.38
2022-08-17T01:56:14.565Z,37.33
2022-08-17T01:58:42.949Z,37.13
2022-08-17T02:01:10.826Z,35.63
2022-08-17T02:03:38.634Z,36.95
2022-08-17T02:06:11.965Z,33.95
2022-08-17T02:09:03.296Z,32.50
2022-08-17T02:11:35.113Z,39.03
2022-08-17T02:14:04.100Z,33.90
2022-08-17T02:16:38.306Z,38.80
2022-08-17T02:19:08.757Z,28.58
2022-08-17T02:21:37.616Z,16.70
2022-08-17T02:24:08.206Z,24.38
2022-08-17T02:26:36.165Z,17.50
2022-08-17T02:29:04.163Z,14.77
2022-08-17T02:31:31.726Z,13.75
2022-08-17T02:34:03.507Z,12.82
2022-08-17T02:36:34.285Z,10.07
2022-08-17T02:39:03.370Z,10.05
2022-08-17T02:41:30.566Z,9.38
2022-08-17T02:43:57.697Z,9.55
2022-08-17T02:46:24.727Z,9.00
2022-08-17T02:48:52.119Z,9.30
2022-08-17T02:51:19.144Z,9.20
2022-08-17T02:53:46.924Z,5.57
2022-08-17T02:56:14.065Z,10.93
2022-08-17T02:58:41.015Z,10.25
2022-08-17T03:01:09.918Z,14.27
2022-08-17T03:03:37.927Z,11.77
2022-08-17T03:06:06.356Z,17.42
2022-08-17T03:08:34.622Z,9.18
2022-08-17T03:11:01.780Z,13.13
2022-08-17T03:13:29.228Z,13.23
2022-08-17T03:15:56.610Z,11.13
2022-08-17T03:18:25.518Z,14.82
2022-08-17T03:21:01.251Z,12.88
2022-08-17T03:23:29.715Z,19.83
2022-08-17T03:25:57.793Z,17.70
2022-08-17T03:28:25.710Z,19.83
2022-08-17T03:30:53.131Z,19.27
2022-08-17T03:33:20.391Z,23.75
2022-08-17T03:35:47.785Z,21.42
2022-08-17T03:38:17.153Z,21.73
2022-08-17T03:40:56.792Z,25.77
2022-08-17T03:43:30.868Z,20.52
2022-08-17T03:46:28.897Z,32.38
2022-08-17T03:49:25.009Z,20.20
2022-08-17T03:52:11.980Z,26.90
2022-08-17T03:54:58.405Z,22.88
2022-08-17T03:57:26.227Z,18.85
2022-08-17T03:59:54.411Z,32.85
2022-08-17T07:33:41.040Z,10.10
2022-08-17T07:36:29.602Z,10.07
2022-08-17T07:38:58.348Z,7.07
2022-08-17T07:41:25.435Z,6.95
2022-08-17T07:44:16.755Z,7.93
2022-08-17T07:47:11.082Z,9.02
2022-08-17T07:49:41.788Z,8.25
2022-08-17T07:52:51.009Z,9.93
2022-08-17T07:55:31.938Z,8.38
2022-08-17T07:57:59.398Z,7.93
2022-08-17T08:00:32.389Z,9.48
2022-08-17T08:03:14.797Z,9.65
2022-08-17T08:05:54.315Z,9.30
2022-08-17T08:08:43.155Z,9.38
2022-08-17T08:11:15.455Z,7.30
2022-08-17T08:13:45.661Z,10.88
2022-08-17T08:16:24.603Z,8.65
2022-08-17T08:18:57.138Z,10.63
2022-08-17T08:21:38.568Z,11.30
2022-08-17T08:24:38.787Z,11.88
2022-08-17T08:27:20.693Z,10.88
2022-08-17T08:29:55.229Z,9.02
2022-08-17T08:32:47.989Z,10.27
2022-08-17T08:38:14.714Z,10.52
2022-08-17T08:40:53.541Z,11.32
2022-08-17T08:43:52.843Z,9.38
2022-08-17T08:46:25.827Z,10.48
2022-08-17T08:49:10.213Z,10.98
2022-08-17T08:51:58.223Z,11.88
2022-08-17T08:54:48.296Z,8.95
2022-08-17T08:57:32.777Z,10.73
2022-08-17T09:00:15.514Z,11.45
2022-08-17T09:03:42.757Z,11.90
2022-08-17T09:06:39.438Z,11.57
2022-08-17T09:09:27.359Z,13.27
2022-08-17T09:12:14.131Z,12.57
2022-08-17T09:14:51.592Z,14.20
2022-08-17T09:17:25.419Z,12.07
2022-08-17T09:20:04.308Z,11.48
2022-08-17T09:22:37.668Z,9.77
2022-08-17T09:25:29.028Z,9.93
2022-08-17T09:28:03.977Z,6.95
2022-08-17T09:30:55.259Z,5.50
2022-08-17T09:33:27.064Z,6.05
2022-08-17T09:36:05.496Z,6.55
2022-08-17T09:38:58.732Z,6.53
2022-08-17T09:41:37.612Z,6.47
2022-08-17T09:44:24.541Z,6.90
2022-08-17T09:47:10.246Z,8.73
2022-08-17T09:49:53.749Z,8.82
2022-08-17T09:52:25.904Z,8.55
2022-08-17T09:54:55.069Z,9.45
2022-08-17T10:00:30.799Z,6.53
2022-08-17T10:03:28.284Z,9.57
2022-08-17T10:06:13.385Z,8.65
2022-08-17T10:08:46.191Z,8.00
2022-08-17T10:11:51.470Z,8.27
2022-08-17T10:14:53.365Z,8.25
2022-08-17T10:17:33.118Z,9.23
2022-08-17T10:20:10.301Z,8.20
2022-08-17T10:23:15.300Z,7.80
2022-08-17T10:26:12.818Z,7.57
2022-08-17T10:28:42.976Z,7.82
2022-08-17T10:31:34.137Z,7.90
2022-08-17T10:34:07.448Z,7.70
2022-08-17T10:37:06.805Z,8.10
2022-08-17T10:39:36.538Z,8.20
2022-08-17T10:42:30.822Z,8.20
2022-08-17T10:45:15.417Z,6.43
2022-08-17T10:47:56.055Z,7.25
2022-08-17T10:50:57.826Z,8.80
2022-08-17T10:53:37.712Z,6.88
2022-08-17T10:56:13.295Z,8.40
2022-08-17T10:58:47.540Z,8.60
2022-08-17T11:01:14.574Z,8.43
2022-08-17T11:03:54.866Z,7.22
2022-08-17T11:06:44.849Z,8.50
2022-08-17T11:09:49.722Z,8.70
2022-08-17T11:12:49.041Z,8.07
2022-08-17T11:15:42.923Z,8.18
2022-08-17T11:18:38.987Z,8.35
2022-08-17T11:21:23.970Z,8.48
2022-08-17T11:24:06.120Z,8.65
2022-08-17T11:29:09.656Z,7.90
2022-08-17T11:31:41.361Z,7.15
2022-08-17T11:34:22.263Z,8.10
2022-08-17T11:37:07.905Z,8.35
2022-08-17T11:39:51.117Z,10.50
2022-08-17T11:42:25.504Z,11.23
2022-08-17T11:45:32.123Z,11.60
2022-08-17T11:48:33.939Z,11.00
2022-08-17T11:51:31.236Z,11.38
2022-08-17T11:54:32.209Z,13.60
2022-08-17T11:57:21.435Z,12.98
2022-08-17T11:59:48.257Z,12.27
2022-08-17T12:02:31.446Z,13.43
2022-08-17T12:05:14.514Z,12.73
2022-08-17T12:08:07.956Z,12.75
2022-08-17T12:10:39.786Z,14.23
2022-08-17T12:13:18.922Z,13.95
2022-08-17T12:15:50.380Z,11.40
2022-08-17T12:18:37.549Z,12.57
2022-08-17T12:21:22.796Z,16.50
2022-08-17T12:24:14.520Z,16.88
2022-08-17T12:26:44.058Z,16.10
2022-08-17T12:29:38.893Z,16.48
2022-08-17T12:32:07.071Z,17.23
2022-08-17T12:34:40.892Z,18.80
2022-08-17T12:37:21.148Z,15.15
2022-08-17T12:39:55.027Z,17.17
2022-08-17T12:42:26.842Z,18.58
2022-08-17T12:44:53.759Z,16.98
2022-08-17T12:47:22.709Z,15.25
2022-08-17T12:49:52.862Z,18.08
2022-08-17T12:52:19.715Z,18.63
2022-08-17T12:55:01.869Z,19.67
2022-08-17T12:57:46.068Z,18.48
2022-08-17T13:00:17.780Z,19.75
2022-08-17T13:02:52.084Z,19.83
2022-08-17T13:05:28.872Z,19.25
2022-08-17T13:07:58.467Z,19.92
2022-08-17T13:10:33.250Z,16.00
2022-08-17T13:13:21.126Z,17.45
2022-08-17T13:15:57.847Z,20.25
2022-08-17T13:18:38.996Z,21.17
2022-08-17T13:21:33.950Z,20.77
2022-08-17T13:24:07.966Z,20.80
2022-08-17T13:26:37.135Z,23.35
2022-08-17T13:31:52.379Z,22.48
2022-08-17T13:34:29.117Z,21.83
2022-08-17T13:37:28.823Z,21.77
2022-08-17T13:40:10.306Z,15.80
2022-08-17T13:42:53.101Z,23.15
2022-08-17T13:45:39.526Z,19.48
2022-08-17T13:48:13.880Z,25.13
2022-08-17T13:50:49.608Z,22.02
2022-08-17T13:53:23.671Z,22.92
2022-08-17T13:55:55.317Z,24.42
2022-08-17T13:58:35.458Z,24.30
2022-08-17T14:01:28.280Z,24.55
2022-08-17T14:03:56.164Z,21.25
2022-08-17T14:06:52.134Z,24.65
2022-08-17T14:09:13.574Z,20.90
2022-08-17T14:11:41.289Z,20.90
2022-08-17T14:14:08.196Z,20.77
2022-08-17T14:16:35.150Z,21.65
2022-08-17T14:19:02.143Z,19.80
2022-08-17T14:21:28.979Z,19.23
2022-08-17T14:23:55.848Z,21.52
2022-08-17T14:26:23.405Z,19.45
2022-08-17T14:28:56.271Z,18.35
2022-08-17T14:31:24.083Z,21.35
2022-08-17T14:33:52.058Z,21.05
2022-08-17T14:36:19.025Z,20.33
2022-08-17T14:38:45.869Z,20.30
2022-08-17T14:41:12.995Z,13.60
2022-08-17T14:43:39.948Z,17.80
2022-08-17T14:46:06.969Z,17.58
2022-08-17T14:48:35.791Z,19.52
2022-08-17T14:51:04.828Z,17.75
2022-08-17T14:53:31.861Z,19.30
2022-08-17T14:55:58.893Z,21.23
2022-08-17T14:58:26.048Z,19.02
2022-08-17T15:00:53.363Z,18.58
2022-08-17T15:03:20.249Z,19.90
2022-08-17T15:05:47.287Z,21.15
2022-08-17T15:08:16.582Z,18.27
2022-08-17T15:10:44.913Z,18.60
2022-08-17T15:13:23.166Z,22.50
2022-08-17T15:15:50.948Z,19.45
2022-08-17T15:18:18.662Z,20.73
2022-08-17T15:20:48.621Z,21.42
2022-08-17T15:23:18.765Z,23.02
2022-08-17T15:25:47.665Z,21.10
2022-08-17T15:28:15.429Z,16.48
2022-08-17T15:30:44.835Z,21.83
2022-08-17T15:33:20.189Z,21.35
2022-08-17T15:35:51.373Z,20.63
2022-08-17T15:38:18.546Z,21.45
2022-08-17T15:40:50.509Z,20.65
2022-08-17T15:43:27.903Z,21.05
2022-08-17T15:46:12.205Z,21.10
2022-08-17T15:48:44.688Z,21.10
2022-08-17T15:51:27.982Z,21.35
2022-08-17T15:53:58.464Z,20.48
2022-08-17T15:56:26.633Z,22.42
2022-08-17T15:58:55.272Z,21.52
2022-08-17T16:01:57.402Z,20.27
2022-08-17T16:04:30.085Z,21.40
2022-08-17T16:06:58.870Z,16.00
2022-08-17T16:09:25.884Z,21.63
2022-08-17T16:11:55.595Z,21.40
2022-08-17T16:14:33.956Z,22.45
2022-08-17T16:17:03.631Z,23.02
2022-08-17T16:19:31.114Z,22.90
2022-08-17T16:21:58.006Z,19.40
2022-08-17T16:24:25.054Z,21.15
2022-08-17T16:26:51.884Z,18.25
2022-08-17T16:29:18.847Z,21.60
2022-08-17T16:31:45.894Z,23.58
2022-08-17T16:34:17.945Z,20.77
2022-08-17T16:36:54.602Z,20.73
2022-08-17T16:39:29.479Z,21.25
2022-08-17T16:41:57.333Z,22.13
2022-08-17T16:44:25.866Z,23.02
2022-08-17T16:46:53.405Z,23.05
2022-08-17T16:49:35.612Z,20.85
2022-08-17T16:52:11.881Z,21.75
2022-08-17T16:54:43.651Z,22.60
2022-08-17T16:57:12.196Z,19.20
2022-08-17T16:59:42.742Z,23.25
2022-08-17T17:02:13.436Z,23.30
2022-08-17T17:08:30.841Z,23.00
2022-08-17T17:11:03.872Z,23.60
2022-08-17T17:14:12.251Z,22.83
2022-08-17T17:16:45.775Z,25.55
2022-08-17T17:19:18.007Z,23.92
2022-08-17T17:22:30.365Z,23.23
2022-08-17T17:25:06.828Z,24.55
2022-08-17T17:27:53.020Z,24.65
2022-08-17T17:30:55.458Z,24.83
2022-08-17T17:33:53.624Z,23.83
2022-08-17T17:36:25.338Z,16.63
2022-08-17T17:39:05.840Z,21.85
2022-08-17T17:41:54.903Z,22.23
2022-08-17T17:44:30.080Z,21.85
2022-08-17T17:47:02.362Z,18.30
2022-08-17T17:49:38.602Z,21.90
2022-08-17T17:52:28.430Z,14.77
2022-08-17T17:55:10.636Z,12.25
2022-08-17T17:58:09.685Z,17.20
2022-08-17T18:00:58.860Z,16.13
2022-08-17T18:03:50.847Z,13.95
2022-08-17T18:06:48.533Z,13.40
2022-08-17T18:09:44.302Z,17.23
2022-08-17T18:12:28.944Z,18.30
2022-08-17T18:15:32.006Z,17.92
2022-08-17T18:18:14.338Z,20.35
2022-08-17T18:20:53.852Z,8.30
2022-08-17T18:23:28.096Z,11.75
2022-08-17T18:25:56.398Z,11.68
2022-08-17T18:28:32.069Z,8.88
2022-08-17T18:33:49.140Z,11.52
2022-08-17T18:36:36.400Z,8.45
2022-08-17T18:39:12.236Z,9.27
2022-08-17T18:41:44.659Z,15.23
2022-08-17T18:44:23.552Z,14.43
2022-08-17T18:47:08.817Z,14.93
2022-08-17T18:49:36.269Z,12.27
2022-08-17T18:52:22.627Z,12.63
2022-08-17T18:55:14.247Z,12.88
2022-08-17T18:57:50.847Z,11.93
2022-08-17T19:00:35.608Z,10.40
2022-08-17T19:03:18.412Z,15.25
2022-08-17T19:06:14.170Z,16.45
2022-08-17T19:08:41.656Z,13.75
2022-08-17T19:11:26.157Z,16.25
2022-08-17T19:13:57.805Z,15.25
2022-08-17T19:16:32.939Z,13.48
2022-08-17T19:19:31.295Z,10.45
2022-08-17T19:22:11.725Z,14.27
2022-08-17T19:24:47.553Z,13.45
2022-08-17T19:27:41.809Z,11.80
2022-08-17T19:30:13.671Z,14.27
2022-08-17T19:32:40.993Z,13.07
2022-08-17T19:35:16.578Z,12.48
2022-08-17T19:38:02.737Z,12.45
2022-08-17T19:41:12.091Z,10.90
2022-08-17T19:44:05.736Z,8.30
2022-08-17T19:46:49.897Z,6.28
2022-08-17T19:49:52.462Z,7.35
2022-08-17T19:52:43.159Z,7.78
2022-08-17T19:55:43.800Z,6.88
2022-08-17T19:58:22.432Z,6.70
2022-08-17T20:00:52.812Z,6.78
2022-08-17T20:06:12.929Z,5.78
2022-08-17T20:09:14.786Z,6.45
2022-08-17T20:11:47.152Z,6.95
2022-08-17T20:14:24.488Z,7.20
2022-08-17T20:16:51.633Z,5.30
2022-08-17T20:19:36.147Z,5.25
2022-08-17T20:22:14.199Z,5.43
2022-08-17T20:24:41.447Z,4.18
2022-08-17T20:27:31.714Z,3.65
2022-08-17T20:30:08.015Z,3.72
2022-08-17T20:32:55.482Z,3.75
2022-08-17T20:35:31.754Z,5.65
2022-08-17T20:38:02.570Z,7.55
2022-08-17T20:40:34.366Z,7.63
2022-08-17T20:43:43.272Z,9.00
2022-08-17T20:46:20.175Z,9.52
2022-08-17T20:48:52.670Z,10.52
2022-08-17T20:51:38.572Z,8.50
2022-08-17T20:54:27.352Z,11.32
2022-08-17T20:59:28.558Z,12.05
2022-08-17T21:02:26.283Z,10.40
2022-08-17T21:04:54.523Z,16.38
2022-08-17T21:07:50.689Z,10.07
2022-08-17T21:10:23.772Z,8.02
2022-08-17T21:13:08.225Z,9.27
2022-08-17T21:15:49.565Z,11.68
2022-08-17T21:18:38.967Z,15.18
2022-08-17T21:21:43.747Z,22.73
2022-08-17T21:24:51.352Z,21.98
2022-08-17T21:27:23.578Z,19.13
2022-08-17T21:30:14.218Z,24.98
2022-08-17T21:32:44.467Z,18.63
2022-08-17T21:35:11.431Z,24.85
2022-08-17T21:37:48.422Z,24.45
2022-08-17T21:40:18.383Z,23.10
2022-08-17T21:42:49.052Z,21.60
2022-08-17T21:45:21.944Z,24.65
2022-08-17T21:48:19.880Z,21.90
2022-08-17T21:51:10.281Z,23.27
2022-08-17T21:54:00.391Z,24.92
2022-08-17T21:56:34.201Z,23.33
2022-08-17T21:59:27.329Z,23.65
2022-08-17T22:01:57.752Z,23.80
2022-08-17T22:04:27.119Z,24.80
2022-08-17T22:09:43.551Z,25.63
2022-08-17T22:12:15.339Z,25.90
2022-08-17T22:15:07.344Z,25.35
2022-08-17T22:17:38.005Z,25.77
2022-08-17T22:20:17.684Z,26.90
2022-08-17T22:23:09.071Z,25.38
2022-08-17T22:25:39.735Z,21.70
2022-08-17T22:28:12.130Z,23.50
2022-08-17T22:30:41.934Z,17.90
2022-08-17T22:33:31.361Z,21.10
2022-08-17T22:36:23.105Z,22.30
2022-08-17T22:38:51.999Z,22.17
2022-08-17T22:41:34.483Z,14.70
2022-08-17T22:44:20.075Z,19.38
2022-08-17T22:46:50.216Z,22.05
2022-08-17T22:49:29.961Z,12.07
2022-08-17T22:52:06.649Z,22.00
2022-08-17T22:54:52.470Z,21.23
2022-08-17T22:57:40.889Z,21.95
2022-08-17T23:00:36.279Z,18.52
2022-08-17T23:05:45.755Z,23.10
2022-08-17T23:08:14.091Z,22.73
2022-08-17T23:10:41.965Z,24.05
2022-08-17T23:13:11.939Z,22.85
2022-08-17T23:15:40.636Z,23.65
2022-08-17T23:18:08.109Z,23.60
2022-08-17T23:20:37.598Z,19.98
2022-08-17T23:23:06.863Z,22.45
2022-08-17T23:25:35.168Z,24.05
2022-08-17T23:28:05.052Z,23.23
2022-08-17T23:30:37.430Z,22.98
2022-08-17T23:33:07.715Z,22.63
2022-08-17T23:35:39.806Z,20.13
2022-08-17T23:38:09.744Z,22.33
2022-08-17T23:40:39.242Z,12.98
2022-08-17T23:43:24.425Z,22.38
2022-08-17T23:45:54.349Z,21.60
2022-08-17T23:48:35.173Z,20.33
2022-08-17T23:51:30.012Z,19.75
2022-08-17T23:54:05.810Z,17.45
2022-08-17T23:56:40.139Z,16.42
2022-08-17T23:59:07.028Z,15.63
